Time;durP1;ratioP1;P1;durP2;ratioP2;P2;SDS_P1;SDS_P2;PMS_P1;PMS_P2;Temp;Humidity;BMP_temperature;BMP_pressure;BME280_temperature;BME280_humidity;BME280_pressure;Samples;Min_cycle;Max_cycle;Signal;HPM_P1;HPM_P2
2022/10/05 00:01:09;;;;;;;8.57;3.97;;;22.70;52.50;;;;;;7678514;22;80509;-55
2022/10/05 00:04:10;;;;;;;6.88;4.18;;;22.70;52.50;;;;;;7673223;22;80273;-58
2022/10/05 00:07:11;;;;;;;9.82;3.95;;;22.70;52.30;;;;;;7680847;22;81226;-57
2022/10/05 00:10:11;;;;;;;8.50;4.00;;;22.70;52.40;;;;;;7682850;22;80519;-58
2022/10/05 00:13:12;;;;;;;6.25;3.78;;;22.70;52.60;;;;;;7677393;22;80565;-58
2022/10/05 00:16:12;;;;;;;6.72;3.45;;;22.70;52.50;;;;;;7653853;22;82375;-59
2022/10/05 00:19:13;;;;;;;10.00;4.80;;;22.70;52.40;;;;;;7680482;22;81620;-56
2022/10/05 00:22:14;;;;;;;5.05;3.55;;;22.70;52.50;;;;;;7681210;22;80784;-58
2022/10/05 00:25:14;;;;;;;6.45;3.47;;;22.70;52.50;;;;;;7678350;22;80370;-57
2022/10/05 00:28:15;;;;;;;10.07;3.97;;;22.70;52.60;;;;;;7683273;22;81443;-57
2022/10/05 00:31:15;;;;;;;7.03;3.60;;;22.70;52.50;;;;;;7678541;22;81369;-61
2022/10/05 00:34:16;;;;;;;7.68;3.85;;;22.70;52.50;;;;;;7674808;22;80484;-59
2022/10/05 00:37:16;;;;;;;7.50;3.50;;;22.70;52.50;;;;;;7651889;22;81586;-58
2022/10/05 00:40:17;;;;;;;6.43;3.33;;;22.60;52.40;;;;;;7679286;22;80696;-58
2022/10/05 00:43:17;;;;;;;6.43;3.00;;;22.70;52.70;;;;;;7627422;22;83322;-57
2022/10/05 00:46:18;;;;;;;6.35;3.28;;;22.70;53.70;;;;;;7680551;22;80853;-57
2022/10/05 00:49:18;;;;;;;4.07;3.17;;;22.70;53.00;;;;;;7682520;22;80488;-58
2022/10/05 00:52:20;;;;;;;8.88;3.85;;;22.70;52.90;;;;;;7681040;22;80895;-48
2022/10/05 00:55:21;;;;;;;9.68;4.30;;;22.70;52.80;;;;;;7650513;22;81669;-52
2022/10/05 00:58:22;;;;;;;10.15;4.00;;;22.70;52.70;;;;;;7653215;22;81630;-46
2022/10/05 01:01:22;;;;;;;5.90;3.63;;;22.70;52.80;;;;;;7681958;22;80716;-48
2022/10/05 01:04:23;;;;;;;8.25;4.03;;;22.70;52.80;;;;;;7646640;22;81210;-47
2022/10/05 01:07:23;;;;;;;8.50;3.80;;;22.70;52.80;;;;;;7652895;22;87233;-48
2022/10/05 01:10:24;;;;;;;5.63;3.72;;;22.70;52.70;;;;;;7679422;22;80245;-55
2022/10/05 01:13:24;;;;;;;7.68;3.78;;;22.70;52.70;;;;;;7680075;22;79918;-53
2022/10/05 01:16:25;;;;;;;9.00;4.00;;;22.70;52.70;;;;;;7652257;22;81389;-52
2022/10/05 01:19:27;;;;;;;7.32;3.67;;;22.80;52.70;;;;;;7680883;22;80313;-54
2022/10/05 01:22:27;;;;;;;6.78;3.50;;;22.80;52.70;;;;;;7680283;22;80297;-55
2022/10/05 01:25:28;;;;;;;6.90;3.65;;;22.70;52.70;;;;;;7652135;22;83479;-55
2022/10/05 01:28:28;;;;;;;6.55;3.47;;;22.70;52.70;;;;;;7653174;22;83090;-54
2022/10/05 01:31:29;;;;;;;6.00;3.45;;;22.70;52.70;;;;;;7679593;22;80217;-55
2022/10/05 01:34:30;;;;;;;8.70;3.85;;;22.80;52.70;;;;;;7653848;22;82787;-54
2022/10/05 01:37:30;;;;;;;4.78;3.13;;;22.80;52.70;;;;;;7679770;22;81110;-56
2022/10/05 01:40:31;;;;;;;6.03;3.63;;;22.80;52.70;;;;;;7652061;22;80723;-53
2022/10/05 01:43:31;;;;;;;6.18;3.63;;;22.80;52.70;;;;;;7653875;22;80588;-55
2022/10/05 01:46:32;;;;;;;4.95;3.25;;;22.80;52.60;;;;;;7679355;22;81244;-53
2022/10/05 01:49:32;;;;;;;6.72;3.83;;;22.80;52.70;;;;;;7677932;22;80400;-54
2022/10/05 01:52:33;;;;;;;5.78;3.85;;;22.80;52.60;;;;;;7679117;22;81141;-56
2022/10/05 01:55:34;;;;;;;4.55;2.63;;;22.80;52.60;;;;;;7651120;22;81734;-55
2022/10/05 01:58:35;;;;;;;5.75;3.17;;;22.80;52.60;;;;;;7653610;22;83140;-55
2022/10/05 02:01:37;;;;;;;5.82;3.63;;;22.70;52.60;;;;;;7652950;22;83492;-55
2022/10/05 02:04:37;;;;;;;5.80;3.00;;;22.80;52.60;;;;;;7679297;22;80197;-59
2022/10/05 02:07:38;;;;;;;5.68;3.20;;;22.80;52.50;;;;;;7680037;22;81579;-59
2022/10/05 02:10:39;;;;;;;4.72;3.13;;;22.70;52.50;;;;;;7679455;22;80236;-58
2022/10/05 02:13:40;;;;;;;11.25;3.25;;;22.70;52.50;;;;;;7680564;22;80645;-58
2022/10/05 02:16:42;;;;;;;11.75;3.88;;;22.80;52.50;;;;;;7651746;22;81664;-58
2022/10/05 02:19:43;;;;;;;5.05;3.17;;;22.70;52.50;;;;;;7677283;22;81856;-58
2022/10/05 02:22:43;;;;;;;4.82;3.15;;;22.70;52.60;;;;;;7677872;22;87440;-58
2022/10/05 02:25:45;;;;;;;5.38;3.00;;;22.70;52.60;;;;;;7651576;22;83111;-59
2022/10/05 02:28:46;;;;;;;6.28;3.55;;;22.70;52.60;;;;;;7651311;22;83269;-58
2022/10/05 02:31:47;;;;;;;4.07;2.88;;;22.70;52.50;;;;;;7651948;22;83407;-59
2022/10/05 02:34:48;;;;;;;6.15;3.10;;;22.70;52.40;;;;;;7652011;22;81176;-57
2022/10/05 02:37:58;;;;;;;3.83;2.53;;;22.80;52.40;;;;;;7650025;22;83024;-58
2022/10/05 02:40:59;;;;;;;5.78;3.45;;;22.70;52.40;;;;;;7654454;22;82533;-60
2022/10/05 02:44:00;;;;;;;6.53;3.22;;;22.70;52.40;;;;;;7650898;22;82927;-60
2022/10/05 02:47:01;;;;;;;7.85;3.00;;;22.80;52.50;;;;;;7652556;22;82549;-60
2022/10/05 02:50:04;;;;;;;6.43;3.30;;;22.70;52.30;;;;;;7651119;22;82796;-60
2022/10/05 02:53:05;;;;;;;3.72;2.80;;;22.80;52.40;;;;;;7654761;22;81722;-60
2022/10/05 02:56:06;;;;;;;7.57;3.13;;;22.80;52.50;;;;;;7650359;22;83005;-60
2022/10/05 02:59:06;;;;;;;4.10;2.72;;;22.80;52.40;;;;;;7651779;22;83792;-59
2022/10/05 03:02:07;;;;;;;6.20;3.33;;;22.70;52.30;;;;;;7653684;22;82994;-59
2022/10/05 03:05:07;;;;;;;6.13;3.33;;;22.70;52.30;;;;;;7678879;22;81895;-59
2022/10/05 03:08:09;;;;;;;4.80;2.80;;;22.80;52.40;;;;;;7653815;22;83466;-60
2022/10/05 03:11:09;;;;;;;4.22;2.92;;;22.80;52.40;;;;;;7676956;22;81967;-58
2022/10/05 03:14:10;;;;;;;8.77;2.60;;;22.80;52.50;;;;;;7652947;22;83264;-58
2022/10/05 03:17:10;;;;;;;5.93;2.88;;;22.70;52.40;;;;;;7679833;22;81241;-54
2022/10/05 03:20:12;;;;;;;6.20;2.75;;;22.80;52.40;;;;;;7648864;22;80400;-56
2022/10/05 03:23:14;;;;;;;3.72;2.78;;;22.70;51.80;;;;;;7651943;22;87245;-55
2022/10/05 03:26:14;;;;;;;3.85;2.58;;;22.80;52.00;;;;;;7653103;22;82915;-58
2022/10/05 03:29:15;;;;;;;5.55;2.55;;;22.80;52.70;;;;;;7652732;22;82025;-56
2022/10/05 03:32:16;;;;;;;3.10;2.40;;;22.80;52.00;;;;;;7651953;22;82849;-57
2022/10/05 03:35:16;;;;;;;4.00;2.65;;;22.90;51.90;;;;;;7651622;22;83083;-59
2022/10/05 03:38:17;;;;;;;4.95;3.10;;;22.90;51.80;;;;;;7652233;22;83410;-48
2022/10/05 03:41:18;;;;;;;7.03;3.13;;;22.90;51.80;;;;;;7651923;22;83304;-47
2022/10/05 03:44:19;;;;;;;5.90;2.97;;;23.00;51.70;;;;;;7679535;22;80340;-48
2022/10/05 03:47:19;;;;;;;6.18;2.97;;;23.00;51.60;;;;;;7676774;22;80716;-46
2022/10/05 03:50:20;;;;;;;6.35;3.25;;;23.10;51.60;;;;;;7671976;22;81535;-47
2022/10/05 03:53:21;;;;;;;5.15;3.22;;;23.10;51.60;;;;;;7649906;22;82121;-50
2022/10/05 03:56:22;;;;;;;6.70;3.22;;;23.10;51.30;;;;;;7676648;22;81478;-51
2022/10/05 03:59:23;;;;;;;5.50;3.13;;;23.20;51.20;;;;;;7651629;22;81380;-48
2022/10/05 04:02:23;;;;;;;5.68;3.28;;;23.20;51.10;;;;;;7674058;22;80638;-46
2022/10/05 04:05:24;;;;;;;5.38;3.20;;;23.20;51.10;;;;;;7646201;22;83422;-49
2022/10/05 04:08:25;;;;;;;5.25;2.75;;;23.20;51.40;;;;;;7646646;22;83134;-51
2022/10/05 04:11:26;;;;;;;5.10;3.15;;;23.20;51.30;;;;;;7651150;22;82320;-49
2022/10/05 04:14:28;;;;;;;7.82;3.85;;;23.20;51.20;;;;;;7650191;22;81726;-46
2022/10/05 04:17:29;;;;;;;5.35;3.13;;;23.20;51.10;;;;;;7646269;22;83496;-48
2022/10/05 04:20:29;;;;;;;5.25;2.95;;;23.30;51.00;;;;;;7679660;22;81190;-47
2022/10/05 04:23:30;;;;;;;5.97;3.65;;;23.30;51.20;;;;;;7678903;22;81167;-58
2022/10/05 04:26:31;;;;;;;6.13;3.05;;;23.30;51.10;;;;;;7651374;22;82688;-47
2022/10/05 04:29:32;;;;;;;9.77;3.80;;;23.30;51.00;;;;;;7646744;22;83124;-58
2022/10/05 04:32:33;;;;;;;7.50;3.53;;;23.40;51.00;;;;;;7679076;22;80479;-58
2022/10/05 04:35:34;;;;;;;5.55;2.83;;;23.40;51.20;;;;;;7651013;22;83305;-47
2022/10/05 04:38:35;;;;;;;7.65;3.40;;;23.40;52.00;;;;;;7651816;22;83261;-50
2022/10/05 04:41:36;;;;;;;4.75;3.05;;;23.40;51.50;;;;;;7648700;22;82548;-48
2022/10/05 04:44:37;;;;;;;9.65;3.28;;;23.40;51.50;;;;;;7650106;22;82225;-46
2022/10/05 04:47:38;;;;;;;4.63;2.88;;;23.50;51.50;;;;;;7649979;22;82887;-47
2022/10/05 04:50:39;;;;;;;9.05;3.58;;;23.50;51.40;;;;;;7654791;22;83205;-50
2022/10/05 04:53:44;;;;;;;9.47;2.93;;;23.50;51.20;;;;;;7664900;22;81379;-52
2022/10/05 04:56:45;;;;;;;5.72;3.30;;;23.50;51.40;;;;;;7648622;22;83359;-52
2022/10/05 04:59:45;;;;;;;7.20;3.58;;;23.50;51.70;;;;;;7652441;22;83479;-47
2022/10/05 05:02:46;;;;;;;7.45;2.92;;;23.50;51.90;;;;;;7650578;22;81912;-51
2022/10/05 05:05:46;;;;;;;3.85;2.80;;;23.50;52.10;;;;;;7677314;22;80607;-50
2022/10/05 05:08:47;;;;;;;9.35;3.50;;;23.40;52.20;;;;;;7678841;22;81030;-47
2022/10/05 05:11:48;;;;;;;6.88;2.45;;;23.50;52.40;;;;;;7653611;22;81554;-58
2022/10/05 05:14:48;;;;;;;9.00;3.70;;;23.40;52.20;;;;;;7678179;22;86526;-53
2022/10/05 05:17:49;;;;;;;7.25;3.20;;;23.50;52.00;;;;;;7651359;22;82815;-50
2022/10/05 05:20:50;;;;;;;4.85;2.88;;;23.40;52.10;;;;;;7681369;22;80686;-47
2022/10/05 05:23:51;;;;;;;8.63;3.15;;;23.40;51.70;;;;;;7649714;22;81865;-48
2022/10/05 05:26:51;;;;;;;6.07;3.05;;;23.40;51.70;;;;;;7651380;22;83230;-48
2022/10/05 05:29:52;;;;;;;5.68;2.60;;;23.40;51.60;;;;;;7645251;22;80794;-48
2022/10/05 05:32:53;;;;;;;12.10;3.28;;;23.40;51.80;;;;;;7675352;22;87491;-57
2022/10/05 05:35:55;;;;;;;5.90;3.17;;;23.40;52.10;;;;;;7647753;22;83054;-57
2022/10/05 05:38:56;;;;;;;12.50;3.33;;;23.40;52.00;;;;;;7651897;22;83010;-47
2022/10/05 05:41:56;;;;;;;9.48;3.47;;;23.40;52.50;;;;;;7679829;22;80367;-48
2022/10/05 05:44:57;;;;;;;6.32;2.75;;;23.40;52.10;;;;;;7622355;22;80836;-47
2022/10/05 05:47:58;;;;;;;3.58;2.40;;;23.40;52.20;;;;;;7647811;22;81342;-50
2022/10/05 05:50:59;;;;;;;4.47;2.58;;;23.40;52.00;;;;;;7649474;22;83063;-48
2022/10/05 05:54:00;;;;;;;5.35;3.20;;;23.40;51.90;;;;;;7675390;22;80484;-48
2022/10/05 05:57:03;;;;;;;5.53;2.95;;;23.40;51.70;;;;;;7676584;22;80473;-48
2022/10/05 06:00:04;;;;;;;6.70;3.45;;;23.30;51.50;;;;;;7651451;22;82726;-47
2022/10/05 06:03:13;;;;;;;5.13;2.90;;;23.30;51.30;;;;;;7675364;22;80379;-47
2022/10/05 06:06:14;;;;;;;7.78;2.90;;;23.40;51.20;;;;;;7648831;22;83553;-56
2022/10/05 06:09:15;;;;;;;13.80;3.00;;;23.40;51.10;;;;;;7647565;22;81209;-56
2022/10/05 06:12:23;;;;;;;7.80;3.00;;;23.40;50.60;;;;;;7643832;22;83311;-53
2022/10/05 06:15:24;;;;;;;5.25;3.20;;;23.40;50.70;;;;;;7650994;22;83061;-47
2022/10/05 06:18:25;;;;;;;6.32;3.00;;;23.40;50.80;;;;;;7648119;22;81575;-54
2022/10/05 06:21:28;;;;;;;9.05;3.55;;;23.40;50.80;;;;;;7650635;22;83103;-58
2022/10/05 06:24:28;;;;;;;4.97;2.55;;;23.30;50.30;;;;;;7644378;22;83427;-58
2022/10/05 06:27:29;;;;;;;7.82;3.70;;;23.20;49.60;;;;;;7652510;22;82588;-59
2022/10/05 06:30:29;;;;;;;15.07;3.58;;;23.20;49.40;;;;;;7633481;22;82287;-59
2022/10/05 06:33:30;;;;;;;11.60;3.95;;;23.10;49.00;;;;;;7664447;22;81738;-57
2022/10/05 06:36:31;;;;;;;9.13;4.32;;;23.00;48.90;;;;;;7676259;22;80645;-58
2022/10/05 06:39:32;;;;;;;15.55;3.90;;;23.00;48.80;;;;;;7654561;22;83482;-59
2022/10/05 06:42:34;;;;;;;8.85;4.63;;;23.00;48.70;;;;;;7678591;22;82279;-59
2022/10/05 06:45:55;;;;;;;7.43;4.20;;;22.90;48.70;;;;;;7655088;22;83016;-59
2022/10/05 06:49:16;;;;;;;14.55;5.32;;;22.90;48.70;;;;;;7634566;22;80970;-59
2022/10/05 06:52:37;;;;;;;8.25;4.85;;;22.90;48.80;;;;;;7665975;22;80282;-59
2022/10/05 06:55:37;;;;;;;10.52;4.85;;;22.90;49.30;;;;;;7652988;22;81900;-60
2022/10/05 06:58:38;;;;;;;9.65;5.22;;;23.00;49.20;;;;;;7652117;22;83243;-61
2022/10/05 07:01:39;;;;;;;16.05;5.68;;;23.00;49.10;;;;;;7652189;22;83639;-60
2022/10/05 07:04:40;;;;;;;7.63;4.75;;;22.90;49.00;;;;;;7651353;22;83493;-59
2022/10/05 07:07:41;;;;;;;10.57;5.13;;;22.90;49.20;;;;;;7650546;22;83391;-59
2022/10/05 07:10:42;;;;;;;10.77;5.68;;;23.00;49.20;;;;;;7674908;22;80152;-60
2022/10/05 07:13:43;;;;;;;10.75;5.13;;;23.00;49.50;;;;;;7680767;22;80375;-59
2022/10/05 07:16:44;;;;;;;16.58;6.68;;;22.90;49.20;;;;;;7650832;22;83174;-60
2022/10/05 07:19:46;;;;;;;17.25;5.80;;;23.00;49.40;;;;;;7648331;22;83299;-59
2022/10/05 07:22:46;;;;;;;18.23;5.53;;;23.00;49.30;;;;;;7678554;22;80367;-59
2022/10/05 07:25:49;;;;;;;13.88;5.95;;;23.10;49.40;;;;;;7652691;22;83424;-59
2022/10/05 07:28:50;;;;;;;11.00;5.70;;;23.10;49.30;;;;;;7650807;22;82787;-60
2022/10/05 07:31:50;;;;;;;9.48;5.43;;;23.20;49.20;;;;;;7679008;22;81311;-60
2022/10/05 07:34:51;;;;;;;12.88;5.90;;;23.20;49.20;;;;;;7654109;22;82462;-59
2022/10/05 07:37:56;;;;;;;10.40;5.53;;;23.20;49.00;;;;;;7644155;22;83241;-59
2022/10/05 07:41:01;;;;;;;16.13;5.75;;;23.20;48.90;;;;;;7645882;22;81667;-59
2022/10/05 07:44:02;;;;;;;14.70;5.38;;;23.20;48.80;;;;;;7651377;22;81910;-60
2022/10/05 07:47:04;;;;;;;9.15;4.72;;;23.20;48.90;;;;;;7649672;22;82797;-60
2022/10/05 07:50:05;;;;;;;5.15;3.85;;;23.20;48.90;;;;;;7649068;22;81806;-59
2022/10/05 07:53:06;;;;;;;13.77;4.50;;;23.20;48.70;;;;;;7651409;22;80391;-60
2022/10/05 07:56:08;;;;;;;11.43;3.95;;;23.20;48.50;;;;;;7649853;22;80399;-58
2022/10/05 07:59:09;;;;;;;8.93;3.42;;;23.20;48.20;;;;;;7649894;22;83014;-61
2022/10/05 08:02:10;;;;;;;5.07;3.22;;;23.20;48.50;;;;;;7659870;22;80746;-61
2022/10/05 08:05:10;;;;;;;13.77;3.63;;;23.20;48.50;;;;;;7628680;22;83598;-60
2022/10/05 08:08:11;;;;;;;7.95;3.55;;;23.20;48.20;;;;;;7658443;22;80630;-59
2022/10/05 08:11:11;;;;;;;6.45;3.30;;;23.30;48.20;;;;;;7656794;22;81390;-60
2022/10/05 08:14:13;;;;;;;12.43;5.72;;;23.30;48.20;;;;;;7655998;22;81655;-59
2022/10/05 08:17:14;;;;;;;12.40;5.53;;;23.30;48.10;;;;;;7658858;22;84973;-58
2022/10/05 08:20:14;;;;;;;11.45;5.38;;;23.40;48.00;;;;;;7659799;22;81223;-60
2022/10/05 08:23:15;;;;;;;13.45;6.57;;;23.40;48.00;;;;;;7663671;22;81110;-61
2022/10/05 08:26:15;;;;;;;18.65;6.20;;;23.40;47.40;;;;;;7655105;22;81436;-60
2022/10/05 08:29:16;;;;;;;13.75;7.40;;;23.40;47.50;;;;;;7655152;22;81165;-55
2022/10/05 08:32:17;;;;;;;15.48;7.65;;;23.40;47.00;;;;;;7656423;22;80971;-56
2022/10/05 08:35:17;;;;;;;16.83;8.45;;;23.40;47.00;;;;;;7660359;22;81203;-53
2022/10/05 08:38:18;;;;;;;18.70;8.70;;;23.50;47.00;;;;;;7661496;22;81247;-52
2022/10/05 08:41:18;;;;;;;21.20;10.00;;;23.50;47.10;;;;;;7659249;22;88032;-54
2022/10/05 08:44:19;;;;;;;25.35;8.60;;;23.50;47.30;;;;;;7658872;22;83765;-54
2022/10/05 08:47:19;;;;;;;17.20;7.85;;;23.60;46.70;;;;;;7658577;22;83039;-57
2022/10/05 08:50:20;;;;;;;14.55;6.40;;;23.60;46.30;;;;;;7673525;22;81252;-57
2022/10/05 08:53:20;;;;;;;12.13;5.55;;;23.60;46.30;;;;;;7665469;22;81637;-46
2022/10/05 08:56:21;;;;;;;7.10;3.95;;;23.60;45.70;;;;;;7668650;22;81086;-49
2022/10/05 08:59:21;;;;;;;6.65;3.70;;;23.50;45.70;;;;;;7665559;22;81209;-49
2022/10/05 09:02:22;;;;;;;7.10;3.13;;;23.50;45.50;;;;;;7676316;22;80562;-46
2022/10/05 09:05:23;;;;;;;5.80;2.75;;;23.40;44.80;;;;;;7677601;22;81118;-48
2022/10/05 09:08:23;;;;;;;3.90;2.58;;;23.10;44.90;;;;;;7681770;22;81731;-58
2022/10/05 09:11:25;;;;;;;2.33;2.05;;;23.10;45.30;;;;;;7679322;22;81099;-58
2022/10/05 09:14:25;;;;;;;3.25;2.03;;;23.10;45.50;;;;;;7679252;22;80663;-58
2022/10/05 09:17:27;;;;;;;4.93;2.25;;;23.20;45.40;;;;;;7678347;22;80883;-58
2022/10/05 09:20:29;;;;;;;2.83;1.85;;;23.10;45.20;;;;;;7676755;22;80347;-57
2022/10/05 09:23:29;;;;;;;5.80;1.75;;;23.20;45.20;;;;;;7675744;22;80521;-58
2022/10/05 09:26:30;;;;;;;2.38;1.95;;;23.20;45.20;;;;;;7677079;22;80426;-58
2022/10/05 09:29:30;;;;;;;4.97;2.55;;;23.20;45.50;;;;;;7678165;22;82004;-57
2022/10/05 09:32:31;;;;;;;4.43;1.80;;;23.30;46.10;;;;;;7679440;22;80265;-56
2022/10/05 09:35:31;;;;;;;5.20;2.05;;;23.30;45.80;;;;;;7676295;22;80223;-57
2022/10/05 09:38:32;;;;;;;4.47;2.42;;;23.30;45.60;;;;;;7678200;22;82118;-58
2022/10/05 09:41:32;;;;;;;3.45;2.25;;;23.30;45.80;;;;;;7674523;22;80405;-58
2022/10/05 09:44:35;;;;;;;3.92;1.95;;;23.30;45.70;;;;;;7673725;22;80757;-58
2022/10/05 09:47:35;;;;;;;4.85;2.45;;;23.30;45.50;;;;;;7679732;22;81140;-57
2022/10/05 09:50:36;;;;;;;4.00;2.15;;;23.20;45.60;;;;;;7677581;22;81025;-57
2022/10/05 09:53:39;;;;;;;5.82;2.03;;;23.20;45.40;;;;;;7675784;22;80389;-58
2022/10/05 09:56:40;;;;;;;8.38;2.28;;;23.10;45.40;;;;;;7675014;22;80022;-59
2022/10/05 09:59:41;;;;;;;2.78;2.03;;;23.10;45.60;;;;;;7671789;22;80692;-58
2022/10/05 10:02:41;;;;;;;6.68;2.38;;;23.00;45.70;;;;;;7678051;22;80326;-59
2022/10/05 10:05:42;;;;;;;5.60;2.33;;;23.00;45.80;;;;;;7674113;22;80815;-59
2022/10/05 10:08:42;;;;;;;3.90;2.10;;;23.00;45.80;;;;;;7675876;22;80698;-57
2022/10/05 10:11:43;;;;;;;5.90;2.03;;;23.00;46.00;;;;;;7679984;22;80103;-57
2022/10/05 10:14:43;;;;;;;6.15;2.47;;;23.00;46.20;;;;;;7677071;22;80596;-57
2022/10/05 10:17:44;;;;;;;6.28;2.65;;;23.00;46.40;;;;;;7673266;22;80891;-55
2022/10/05 10:20:44;;;;;;;4.63;1.80;;;23.00;46.30;;;;;;7679188;22;80205;-57
2022/10/05 10:23:45;;;;;;;2.90;2.00;;;23.00;46.30;;;;;;7678292;22;80393;-57
2022/10/05 10:26:46;;;;;;;3.88;2.35;;;23.10;46.70;;;;;;7679008;22;81144;-56
2022/10/05 10:29:46;;;;;;;5.65;2.13;;;23.10;46.60;;;;;;7678869;22;80402;-56
2022/10/05 10:32:47;;;;;;;3.72;2.20;;;23.00;46.80;;;;;;7680125;22;80706;-57
2022/10/05 10:35:48;;;;;;;4.85;2.78;;;23.00;47.10;;;;;;7676760;22;80174;-57
2022/10/05 10:38:48;;;;;;;3.80;2.50;;;23.00;46.80;;;;;;7680634;22;81923;-46
2022/10/05 10:41:49;;;;;;;6.07;2.53;;;22.90;46.80;;;;;;7672193;22;80666;-47
2022/10/05 10:44:49;;;;;;;4.25;2.03;;;22.90;47.10;;;;;;7675789;22;80329;-45
2022/10/05 10:47:50;;;;;;;4.15;2.53;;;23.00;46.70;;;;;;7677658;22;80696;-47
2022/10/05 10:50:51;;;;;;;5.90;2.28;;;22.90;46.70;;;;;;7679244;22;80658;-51
2022/10/05 10:53:51;;;;;;;3.80;2.40;;;23.00;46.80;;;;;;7676562;22;80535;-48
2022/10/05 10:56:53;;;;;;;12.82;3.65;;;23.00;47.10;;;;;;7677743;22;80579;-45
2022/10/05 10:59:53;;;;;;;5.18;3.00;;;23.10;47.60;;;;;;7678122;22;80268;-47
2022/10/05 11:02:54;;;;;;;4.78;2.78;;;23.20;47.70;;;;;;7676207;22;80930;-48
2022/10/05 11:05:54;;;;;;;8.82;3.03;;;23.30;47.90;;;;;;7677033;22;80478;-45
2022/10/05 11:08:55;;;;;;;9.85;3.60;;;23.40;47.90;;;;;;7676033;22;81072;-46
2022/10/05 11:11:57;;;;;;;7.15;3.40;;;23.50;47.60;;;;;;7679217;22;80201;-48
2022/10/05 11:14:57;;;;;;;4.00;2.88;;;23.50;47.50;;;;;;7675881;22;80066;-57
2022/10/05 11:17:58;;;;;;;3.80;2.38;;;23.50;47.40;;;;;;7677526;22;81521;-56
2022/10/05 11:20:58;;;;;;;5.20;2.70;;;23.50;47.20;;;;;;7678861;22;80306;-53
2022/10/05 11:23:59;;;;;;;7.20;2.85;;;23.50;47.30;;;;;;7677262;22;80868;-58
2022/10/05 11:27:01;;;;;;;7.45;2.85;;;23.50;46.70;;;;;;7676904;22;80408;-57
2022/10/05 11:30:01;;;;;;;4.55;2.85;;;23.50;46.90;;;;;;7678897;22;80276;-56
2022/10/05 11:33:02;;;;;;;7.13;3.00;;;23.40;46.70;;;;;;7672469;22;81012;-61
2022/10/05 11:36:03;;;;;;;11.10;2.47;;;23.40;47.10;;;;;;7680077;22;80459;-60
2022/10/05 11:39:03;;;;;;;8.20;2.58;;;23.30;47.60;;;;;;7677299;22;79995;-60
2022/10/05 11:42:04;;;;;;;6.35;2.78;;;23.20;47.70;;;;;;7677193;22;80475;-61
2022/10/05 11:45:05;;;;;;;3.63;2.50;;;23.00;47.80;;;;;;7677495;22;80224;-62
2022/10/05 11:48:06;;;;;;;6.43;3.20;;;23.00;47.70;;;;;;7678369;22;82200;-61
2022/10/05 11:51:06;;;;;;;7.53;2.83;;;23.10;47.90;;;;;;7679423;22;80329;-60
2022/10/05 11:54:07;;;;;;;3.58;2.13;;;23.20;48.10;;;;;;7675256;22;80673;-59
2022/10/05 11:57:07;;;;;;;7.57;2.90;;;23.10;48.60;;;;;;7677401;22;80243;-58
2022/10/05 12:00:08;;;;;;;4.85;2.90;;;23.20;48.60;;;;;;7676191;22;81723;-58
2022/10/05 12:03:10;;;;;;;4.63;2.80;;;23.30;48.70;;;;;;7673201;22;81969;-57
2022/10/05 12:06:10;;;;;;;5.85;2.92;;;23.40;48.80;;;;;;7678516;22;80836;-58
2022/10/05 12:09:11;;;;;;;8.20;2.65;;;23.40;48.60;;;;;;7678545;22;80222;-58
2022/10/05 12:12:11;;;;;;;9.20;3.40;;;23.10;49.00;;;;;;7678979;22;80789;-60
2022/10/05 12:15:12;;;;;;;13.02;2.85;;;23.00;49.40;;;;;;7679156;22;80252;-61
2022/10/05 12:18:12;;;;;;;5.57;3.05;;;23.00;49.50;;;;;;7676370;22;80536;-60
2022/10/05 12:21:13;;;;;;;5.63;2.55;;;22.90;50.00;;;;;;7678082;22;80726;-60
2022/10/05 12:24:14;;;;;;;5.53;2.78;;;23.10;49.60;;;;;;7679012;22;80926;-60
2022/10/05 12:27:15;;;;;;;4.15;2.80;;;23.10;49.50;;;;;;7678708;22;80251;-61
2022/10/05 12:30:15;;;;;;;6.30;3.17;;;23.00;49.80;;;;;;7672300;22;81348;-61
2022/10/05 12:33:16;;;;;;;7.35;3.75;;;23.10;49.70;;;;;;7673530;22;80335;-60
2022/10/05 12:36:16;;;;;;;8.85;3.13;;;23.20;50.00;;;;;;7670637;22;80594;-59
2022/10/05 12:39:17;;;;;;;5.82;3.08;;;23.00;49.60;;;;;;7675712;22;80813;-59
2022/10/05 12:42:17;;;;;;;3.85;2.88;;;23.10;49.90;;;;;;7675744;22;80378;-60
2022/10/05 12:45:18;;;;;;;14.27;3.15;;;23.20;50.10;;;;;;7673782;22;80497;-60
2022/10/05 12:48:18;;;;;;;4.03;2.72;;;23.30;49.70;;;;;;7679359;22;80340;-59
2022/10/05 12:51:19;;;;;;;8.00;2.75;;;23.40;50.10;;;;;;7681722;22;80661;-59
2022/10/05 12:54:19;;;;;;;4.18;2.58;;;23.30;50.10;;;;;;7676472;22;80239;-60
2022/10/05 12:57:20;;;;;;;5.28;2.75;;;23.10;50.70;;;;;;7667057;22;80443;-60
2022/10/05 13:00:20;;;;;;;6.68;3.13;;;23.00;51.10;;;;;;7660601;22;81072;-59
2022/10/05 13:03:22;;;;;;;6.03;3.63;;;23.10;51.00;;;;;;7664880;22;80369;-62
2022/10/05 13:06:23;;;;;;;6.85;3.38;;;23.20;51.10;;;;;;7660615;22;81213;-59
2022/10/05 13:09:24;;;;;;;7.18;3.20;;;23.20;51.30;;;;;;7658203;22;81902;-60
2022/10/05 13:12:25;;;;;;;7.43;3.20;;;23.30;51.10;;;;;;7658394;22;80428;-60
2022/10/05 13:15:25;;;;;;;7.95;3.40;;;23.40;51.20;;;;;;7664662;22;80847;-59
2022/10/05 13:18:26;;;;;;;7.97;3.92;;;23.20;51.20;;;;;;7663302;22;81378;-60
2022/10/05 13:21:26;;;;;;;8.55;3.97;;;23.40;51.30;;;;;;7658727;22;81440;-60
2022/10/05 13:24:27;;;;;;;26.13;4.43;;;23.20;51.30;;;;;;7657812;22;81253;-57
2022/10/05 13:27:28;;;;;;;14.65;4.90;;;23.20;51.30;;;;;;7660167;22;81405;-56
2022/10/05 13:30:28;;;;;;;8.05;3.20;;;23.20;51.20;;;;;;7658962;22;80666;-57
2022/10/05 13:33:29;;;;;;;9.20;3.92;;;23.20;51.20;;;;;;7663617;22;80808;-57
2022/10/05 13:36:30;;;;;;;8.13;4.45;;;23.20;51.20;;;;;;7670110;22;80128;-56
2022/10/05 13:39:30;;;;;;;9.98;5.15;;;23.10;51.30;;;;;;7677629;22;81749;-57
2022/10/05 13:42:31;;;;;;;7.13;3.17;;;23.20;51.20;;;;;;7663889;22;80539;-59
2022/10/05 13:45:31;;;;;;;4.72;3.05;;;23.00;51.10;;;;;;7667561;22;80093;-59
2022/10/05 13:48:32;;;;;;;8.10;3.90;;;23.10;51.30;;;;;;7673843;22;80946;-60
2022/10/05 13:51:32;;;;;;;10.80;4.47;;;23.20;51.10;;;;;;7675904;22;81306;-60
2022/10/05 13:54:33;;;;;;;8.63;3.60;;;23.10;51.00;;;;;;7666303;22;80773;-64
2022/10/05 13:57:34;;;;;;;4.07;2.88;;;23.00;51.10;;;;;;7678035;22;81249;-60
2022/10/05 14:00:34;;;;;;;10.80;3.20;;;23.00;51.30;;;;;;7680140;22;81856;-59
2022/10/05 14:03:35;;;;;;;4.45;2.65;;;22.80;51.70;;;;;;7679577;22;80333;-58
2022/10/05 14:06:36;;;;;;;6.72;2.35;;;22.60;52.20;;;;;;7680116;22;80414;-60
2022/10/05 14:09:36;;;;;;;8.45;2.45;;;22.40;52.50;;;;;;7678799;22;80395;-60
2022/10/05 14:12:37;;;;;;;5.57;2.40;;;22.30;52.50;;;;;;7672179;22;81977;-59
2022/10/05 14:15:38;;;;;;;12.10;4.35;;;22.30;52.50;;;;;;7677080;22;81000;-60
2022/10/05 14:18:38;;;;;;;8.80;2.60;;;22.20;53.10;;;;;;7680428;22;80075;-57
2022/10/05 14:21:39;;;;;;;11.75;3.03;;;22.00;53.10;;;;;;7677989;22;80280;-55
2022/10/05 14:24:39;;;;;;;4.25;2.63;;;21.90;53.50;;;;;;7671510;22;80598;-56
2022/10/05 14:27:40;;;;;;;7.05;2.60;;;21.90;53.90;;;;;;7667272;22;81628;-54
2022/10/05 14:30:40;;;;;;;4.13;2.13;;;21.80;53.90;;;;;;7665141;22;82329;-55
2022/10/05 14:33:41;;;;;;;5.65;2.35;;;21.80;53.90;;;;;;7667063;22;80605;-58
2022/10/05 14:36:42;;;;;;;4.10;2.28;;;21.70;54.00;;;;;;7657042;22;81697;-56
2022/10/05 14:39:43;;;;;;;6.28;2.75;;;21.70;54.60;;;;;;7668304;22;80317;-56
2022/10/05 14:42:43;;;;;;;6.65;2.83;;;21.60;54.30;;;;;;7668884;22;81522;-55
2022/10/05 14:45:44;;;;;;;3.92;2.72;;;21.70;54.60;;;;;;7676432;22;80976;-56
2022/10/05 14:48:44;;;;;;;6.45;2.88;;;21.70;54.50;;;;;;7647935;22;80555;-58
2022/10/05 14:51:45;;;;;;;5.18;2.83;;;21.70;55.00;;;;;;7676332;22;81529;-58
2022/10/05 14:54:45;;;;;;;3.38;2.53;;;21.80;55.10;;;;;;7678020;22;80702;-60
2022/10/05 14:57:46;;;;;;;7.68;3.42;;;21.90;54.70;;;;;;7679681;22;80650;-53
2022/10/05 15:00:47;;;;;;;6.07;3.25;;;22.10;55.00;;;;;;7660014;22;82885;-57
2022/10/05 15:03:47;;;;;;;9.25;3.40;;;22.20;54.50;;;;;;7620448;22;80534;-58
2022/10/05 15:06:48;;;;;;;7.78;3.38;;;22.20;54.70;;;;;;7631622;22;80494;-57
2022/10/05 15:09:49;;;;;;;6.18;2.95;;;21.90;55.40;;;;;;7639885;22;81689;-58
2022/10/05 15:12:50;;;;;;;6.50;3.38;;;21.90;55.60;;;;;;7640189;22;81001;-56
2022/10/05 15:15:53;;;;;;;12.15;2.67;;;22.00;55.40;;;;;;7641424;22;80760;-58
2022/10/05 15:18:55;;;;;;;6.13;2.67;;;21.80;55.90;;;;;;7625957;22;85235;-59
2022/10/05 15:21:56;;;;;;;7.80;3.65;;;21.60;56.60;;;;;;7637691;22;81693;-60
2022/10/05 15:24:56;;;;;;;6.15;2.92;;;21.80;56.90;;;;;;7640667;22;80522;-59
2022/10/05 15:27:57;;;;;;;6.22;3.13;;;22.10;56.60;;;;;;7642867;22;80776;-59
2022/10/05 15:30:58;;;;;;;10.18;4.05;;;22.40;56.10;;;;;;7640623;22;81129;-63
2022/10/05 15:33:58;;;;;;;4.78;3.45;;;22.60;56.00;;;;;;7642140;22;80182;-62
2022/10/05 15:36:59;;;;;;;7.30;3.13;;;22.70;55.90;;;;;;7633351;22;80713;-60
2022/10/05 15:39:59;;;;;;;7.22;3.22;;;22.80;56.30;;;;;;7633551;22;80518;-59